Al Kharj — D5ME2 — position and weather

sailwx.info

Track history (hours):
 
Tides and Currents Weather Stations Pressure Air Temp Water Temp Dewpoint Dewpoint Depression Visibility Wind Speed Wind Dir Waves Ship Positions

Al Kharj

Last reported at 2018-Feb-14 12:40 UTC. Time now 2018-Feb-20 06:11 UTC.
Position S 34°47' E 138°28'.

Length 306 m; draft 10.4 m.

Type: Ship (hazmat cat A). MMSI: 636017671.

Date/timePositionNaut miles runAvg speedWind from/ knotsBaromVisibWave heightAir tempDewpointWater temp
2018-Feb-14 12:40S 34°47' E 138°28'1 6.4
2018-Feb-14 12:28S 34°46' E 138°29'0 0.0
2018-Feb-13 09:48S 34°46' E 138°30'0 0.0
2018-Feb-13 03:33S 34°46' E 138°30'0 0.0
2018-Feb-13 03:30S 34°46' E 138°30'35 1.7
2018-Feb-12 07:08S 35°16' E 138°08'110.7
2018-Feb-12 07:00S 35°17' E 138°08'1511.1
2018-Feb-12 05:38S 35°31' E 138°01'216.4
2018-Feb-12 05:30S 35°33' E 138°00'53315.7
2018-Feb-10 19:30S 38°33' E 148°30'917.9
2018-Feb-10 19:00S 38°28' E 148°39'1317.8
2018-Feb-10 18:15S 38°20' E 148°53'518.2
2018-Feb-10 18:00S 38°17' E 148°58'918.3
2018-Feb-10 17:31S 38°12' E 149°07'25819.2
2018-Feb-10 04:07S 34°16' E 151°14'220.4
2018-Feb-10 04:00S 34°14' E 151°14'1019.7
2018-Feb-10 03:30S 34°04' E 151°16'14 0.3
2018-Feb-08 09:00S 34°18' E 151°14'37 9.1
2018-Feb-08 05:00S 34°54' E 151°07'27914.3
2018-Feb-07 09:30S 38°51' E 148°01'816.6
2018-Feb-07 09:00S 38°54' E 147°51'816.4
2018-Feb-07 08:30S 38°57' E 147°41'816.1
2018-Feb-07 08:00S 38°59' E 147°32'815.8
2018-Feb-07 07:30S 39°02' E 147°22'815.7
2018-Feb-07 07:00S 39°05' E 147°13'815.5
2018-Feb-07 06:29S 39°08' E 147°03'815.2
2018-Feb-07 05:58S 39°11' E 146°54'1515.7
2018-Feb-07 05:00S 39°15' E 146°35'815.8
2018-Feb-07 04:30S 39°16' E 146°25'815.8
2018-Feb-07 04:00S 39°16' E 146°15'815.6
2018-Feb-07 03:30S 39°16' E 146°05'815.4
2018-Feb-07 03:00S 39°13' E 145°56'815.9
2018-Feb-07 02:30S 39°08' E 145°47'816.2
2018-Feb-07 02:00S 39°04' E 145°38'816.4
2018-Feb-07 01:30S 38°59' E 145°30'815.9
2018-Feb-07 01:00S 38°55' E 145°21'815.9
2018-Feb-07 00:30S 38°51' E 145°12'816.0
2018-Feb-07 00:00S 38°46' E 145°04'816.2
2018-Feb-06 23:30S 38°42' E 144°55'816.1
2018-Feb-06 23:00S 38°37' E 144°47'2014.6
2018-Feb-06 21:40S 38°20' E 144°35'913.9
2018-Feb-06 21:01S 38°19' E 144°47'116.5
2018-Feb-06 20:57S 38°19' E 144°48'512.1
2018-Feb-06 20:29S 38°18' E 144°55'917.1
2018-Feb-06 19:59S 38°09' E 144°55'1216.6
2018-Feb-06 19:16S 37°57' E 144°56'312.7
2018-Feb-06 19:00S 37°54' E 144°56'4 8.2
2018-Feb-06 18:29S 37°50' E 144°54'1 2.6
2018-Feb-06 18:00S 37°49' E 144°55'0 0.0
2018-Feb-06 16:28S 37°49' E 144°55'0 0.0
2018-Feb-06 06:49S 37°49' E 144°55'0 0.0
2018-Feb-06 06:13S 37°49' E 144°55'0 0.0
2018-Feb-06 05:49S 37°49' E 144°55'0 0.0
2018-Feb-05 17:13S 37°49' E 144°55'0 0.0
2018-Feb-05 16:49S 37°49' E 144°55'0 0.0
2018-Feb-05 15:55S 37°49' E 144°55'0 0.0
2018-Feb-05 15:25S 37°49' E 144°55'0 0.0
2018-Feb-05 14:40S 37°49' E 144°55'0 0.0
2018-Feb-05 14:01S 37°49' E 144°55'0 0.0
2018-Feb-05 13:52S 37°49' E 144°55'0 0.0
2018-Feb-05 13:28S 37°49' E 144°55'0 0.0
2018-Feb-05 12:43S 37°49' E 144°55'0 0.0
2018-Feb-05 12:25S 37°49' E 144°55'0 0.0
2018-Feb-05 11:58S 37°49' E 144°55'0 0.0
2018-Feb-05 11:10S 37°49' E 144°55'0 0.0
2018-Feb-05 10:55S 37°49' E 144°55'0 0.0
2018-Feb-05 10:25S 37°49' E 144°55'0 0.0
2018-Feb-05 09:37S 37°49' E 144°55'0 0.1
2018-Feb-05 04:45S 37°49' E 144°55'3 4.2
2018-Feb-05 03:56S 37°52' E 144°56'511.0
2018-Feb-05 03:30S 37°57' E 144°56'2312.3
2018-Feb-05 01:36S 38°18' E 144°42'216.3
2018-Feb-05 01:30S 38°17' E 144°40'12 9.9
2018-Feb-05 00:18S 38°24' E 144°28'3 8.6
2018-Feb-05 00:00S 38°26' E 144°26'810.2
2018-Feb-04 23:14S 38°31' E 144°18'210.7
2018-Feb-04 23:00S 38°33' E 144°15'510.5
2018-Feb-04 22:30S 38°36' E 144°10'510.3
2018-Feb-04 22:00S 38°39' E 144°05'1210.0
2018-Feb-04 20:49S 38°47' E 143°53'1214.7
2018-Feb-04 20:01S 38°54' E 143°41'1019.1
2018-Feb-04 19:31S 38°56' E 143°29'1019.4
2018-Feb-04 19:00S 38°55' E 143°17'1020.1
2018-Feb-04 18:31S 38°53' E 143°04'1020.2
2018-Feb-04 18:01S 38°52' E 142°52'1020.6
2018-Feb-04 17:30S 38°50' E 142°38'4120.7
2018-Feb-04 15:30S 38°43' E 141°46'1820.5
2018-Feb-04 14:37S 38°40' E 141°23'520.7
2018-Feb-04 14:21S 38°40' E 141°16'2720.6
2018-Feb-04 13:02S 38°35' E 140°42'020.4
2018-Feb-04 13:00S 38°35' E 140°41'  
Track history (hours):
 
Tides and Currents Weather Stations Pressure Air Temp Water Temp Dewpoint Dewpoint Depression Visibility Wind Speed Wind Dir Waves Ship Positions

Al Kharj

Last reported at 2018-Feb-14 12:40 UTC. Time now 2018-Feb-20 06:11 UTC.
Position S 34°47' E 138°28'.

Length 306 m; draft 10.4 m.

Type: Ship (hazmat cat A). MMSI: 636017671.

Date/timePositionNaut miles runAvg speedWind from/ knotsBaromVisibWave heightAir tempDewpointWater temp
2018-Feb-14 12:40S 34°47' E 138°28'1 6.4
2018-Feb-14 12:28S 34°46' E 138°29'0 0.0
2018-Feb-13 09:48S 34°46' E 138°30'0 0.0
2018-Feb-13 03:33S 34°46' E 138°30'0 0.0
2018-Feb-13 03:30S 34°46' E 138°30'35 1.7
2018-Feb-12 07:08S 35°16' E 138°08'110.7
2018-Feb-12 07:00S 35°17' E 138°08'1511.1
2018-Feb-12 05:38S 35°31' E 138°01'216.4
2018-Feb-12 05:30S 35°33' E 138°00'53315.7
2018-Feb-10 19:30S 38°33' E 148°30'917.9
2018-Feb-10 19:00S 38°28' E 148°39'1317.8
2018-Feb-10 18:15S 38°20' E 148°53'518.2
2018-Feb-10 18:00S 38°17' E 148°58'918.3
2018-Feb-10 17:31S 38°12' E 149°07'25819.2
2018-Feb-10 04:07S 34°16' E 151°14'220.4
2018-Feb-10 04:00S 34°14' E 151°14'1019.7
2018-Feb-10 03:30S 34°04' E 151°16'14 0.3
2018-Feb-08 09:00S 34°18' E 151°14'37 9.1
2018-Feb-08 05:00S 34°54' E 151°07'27914.3
2018-Feb-07 09:30S 38°51' E 148°01'816.6
2018-Feb-07 09:00S 38°54' E 147°51'816.4
2018-Feb-07 08:30S 38°57' E 147°41'816.1
2018-Feb-07 08:00S 38°59' E 147°32'815.8
2018-Feb-07 07:30S 39°02' E 147°22'815.7
2018-Feb-07 07:00S 39°05' E 147°13'815.5
2018-Feb-07 06:29S 39°08' E 147°03'815.2
2018-Feb-07 05:58S 39°11' E 146°54'1515.7
2018-Feb-07 05:00S 39°15' E 146°35'815.8
2018-Feb-07 04:30S 39°16' E 146°25'815.8
2018-Feb-07 04:00S 39°16' E 146°15'815.6
2018-Feb-07 03:30S 39°16' E 146°05'815.4
2018-Feb-07 03:00S 39°13' E 145°56'815.9
2018-Feb-07 02:30S 39°08' E 145°47'816.2
2018-Feb-07 02:00S 39°04' E 145°38'816.4
2018-Feb-07 01:30S 38°59' E 145°30'815.9
2018-Feb-07 01:00S 38°55' E 145°21'815.9
2018-Feb-07 00:30S 38°51' E 145°12'816.0
2018-Feb-07 00:00S 38°46' E 145°04'816.2
2018-Feb-06 23:30S 38°42' E 144°55'816.1
2018-Feb-06 23:00S 38°37' E 144°47'2014.6
2018-Feb-06 21:40S 38°20' E 144°35'913.9
2018-Feb-06 21:01S 38°19' E 144°47'116.5
2018-Feb-06 20:57S 38°19' E 144°48'512.1
2018-Feb-06 20:29S 38°18' E 144°55'917.1
2018-Feb-06 19:59S 38°09' E 144°55'1216.6
2018-Feb-06 19:16S 37°57' E 144°56'312.7
2018-Feb-06 19:00S 37°54' E 144°56'4 8.2
2018-Feb-06 18:29S 37°50' E 144°54'1 2.6
2018-Feb-06 18:00S 37°49' E 144°55'0 0.0
2018-Feb-06 16:28S 37°49' E 144°55'0 0.0
2018-Feb-06 06:49S 37°49' E 144°55'0 0.0
2018-Feb-06 06:13S 37°49' E 144°55'0 0.0
2018-Feb-06 05:49S 37°49' E 144°55'0 0.0
2018-Feb-05 17:13S 37°49' E 144°55'0 0.0
2018-Feb-05 16:49S 37°49' E 144°55'0 0.0
2018-Feb-05 15:55S 37°49' E 144°55'0 0.0
2018-Feb-05 15:25S 37°49' E 144°55'0 0.0
2018-Feb-05 14:40S 37°49' E 144°55'0 0.0
2018-Feb-05 14:01S 37°49' E 144°55'0 0.0
2018-Feb-05 13:52S 37°49' E 144°55'0 0.0
2018-Feb-05 13:28S 37°49' E 144°55'0 0.0
2018-Feb-05 12:43S 37°49' E 144°55'0 0.0
2018-Feb-05 12:25S 37°49' E 144°55'0 0.0
2018-Feb-05 11:58S 37°49' E 144°55'0 0.0
2018-Feb-05 11:10S 37°49' E 144°55'0 0.0
2018-Feb-05 10:55S 37°49' E 144°55'0 0.0
2018-Feb-05 10:25S 37°49' E 144°55'0 0.0
2018-Feb-05 09:37S 37°49' E 144°55'0 0.1
2018-Feb-05 04:45S 37°49' E 144°55'3 4.2
2018-Feb-05 03:56S 37°52' E 144°56'511.0
2018-Feb-05 03:30S 37°57' E 144°56'2312.3
2018-Feb-05 01:36S 38°18' E 144°42'216.3
2018-Feb-05 01:30S 38°17' E 144°40'12 9.9
2018-Feb-05 00:18S 38°24' E 144°28'3 8.6
2018-Feb-05 00:00S 38°26' E 144°26'810.2
2018-Feb-04 23:14S 38°31' E 144°18'210.7
2018-Feb-04 23:00S 38°33' E 144°15'510.5
2018-Feb-04 22:30S 38°36' E 144°10'510.3
2018-Feb-04 22:00S 38°39' E 144°05'1210.0
2018-Feb-04 20:49S 38°47' E 143°53'1214.7
2018-Feb-04 20:01S 38°54' E 143°41'1019.1
2018-Feb-04 19:31S 38°56' E 143°29'1019.4
2018-Feb-04 19:00S 38°55' E 143°17'1020.1
2018-Feb-04 18:31S 38°53' E 143°04'1020.2
2018-Feb-04 18:01S 38°52' E 142°52'1020.6
2018-Feb-04 17:30S 38°50' E 142°38'4120.7
2018-Feb-04 15:30S 38°43' E 141°46'1820.5
2018-Feb-04 14:37S 38°40' E 141°23'520.7
2018-Feb-04 14:21S 38°40' E 141°16'2720.6
2018-Feb-04 13:02S 38°35' E 140°42'020.4
2018-Feb-04 13:00S 38°35' E 140°41'  

Dump ship's entire track history